sensor_id;sensor_type;location;lat;lon;timestamp;P1;durP1;ratioP1;P2;durP2;ratioP2
15476;SDS011;7840;42.702;23.296;2023-04-12T00:01:10;10.77;;;9.60;;
15476;SDS011;7840;42.702;23.296;2023-04-12T00:03:37;10.77;;;9.67;;
15476;SDS011;7840;42.702;23.296;2023-04-12T00:06:04;10.50;;;9.50;;
15476;SDS011;7840;42.702;23.296;2023-04-12T00:08:32;10.23;;;9.23;;
15476;SDS011;7840;42.702;23.296;2023-04-12T00:10:59;10.50;;;9.50;;
15476;SDS011;7840;42.702;23.296;2023-04-12T00:13:28;11.07;;;9.97;;
15476;SDS011;7840;42.702;23.296;2023-04-12T00:15:56;10.93;;;9.73;;
15476;SDS011;7840;42.702;23.296;2023-04-12T00:18:23;11.03;;;10.03;;
15476;SDS011;7840;42.702;23.296;2023-04-12T00:20:51;11.70;;;10.27;;
15476;SDS011;7840;42.702;23.296;2023-04-12T00:23:19;11.57;;;10.10;;
15476;SDS011;7840;42.702;23.296;2023-04-12T00:25:46;12.83;;;9.80;;
15476;SDS011;7840;42.702;23.296;2023-04-12T00:28:13;11.87;;;10.77;;
15476;SDS011;7840;42.702;23.296;2023-04-12T00:30:42;10.30;;;9.17;;
15476;SDS011;7840;42.702;23.296;2023-04-12T00:33:10;11.93;;;9.87;;
15476;SDS011;7840;42.702;23.296;2023-04-12T00:35:37;10.77;;;9.37;;
15476;SDS011;7840;42.702;23.296;2023-04-12T00:38:04;10.83;;;9.73;;
15476;SDS011;7840;42.702;23.296;2023-04-12T00:40:34;11.70;;;10.13;;
15476;SDS011;7840;42.702;23.296;2023-04-12T00:43:01;11.23;;;10.07;;
15476;SDS011;7840;42.702;23.296;2023-04-12T00:45:29;10.90;;;9.77;;
15476;SDS011;7840;42.702;23.296;2023-04-12T00:47:58;11.53;;;10.23;;
15476;SDS011;7840;42.702;23.296;2023-04-12T00:50:25;11.27;;;10.07;;
15476;SDS011;7840;42.702;23.296;2023-04-12T00:52:53;11.47;;;10.27;;
15476;SDS011;7840;42.702;23.296;2023-04-12T00:55:21;12.63;;;10.00;;
15476;SDS011;7840;42.702;23.296;2023-04-12T00:57:49;12.27;;;10.87;;
15476;SDS011;7840;42.702;23.296;2023-04-12T01:00:17;14.80;;;11.03;;
15476;SDS011;7840;42.702;23.296;2023-04-12T01:02:45;13.20;;;11.23;;
15476;SDS011;7840;42.702;23.296;2023-04-12T01:05:16;12.27;;;10.77;;
15476;SDS011;7840;42.702;23.296;2023-04-12T01:07:46;11.70;;;10.27;;
15476;SDS011;7840;42.702;23.296;2023-04-12T01:10:17;13.00;;;11.30;;
15476;SDS011;7840;42.702;23.296;2023-04-12T01:12:49;11.87;;;10.53;;
15476;SDS011;7840;42.702;23.296;2023-04-12T01:15:19;12.03;;;10.73;;
15476;SDS011;7840;42.702;23.296;2023-04-12T01:17:50;14.80;;;10.63;;
15476;SDS011;7840;42.702;23.296;2023-04-12T01:20:23;13.47;;;10.93;;
15476;SDS011;7840;42.702;23.296;2023-04-12T01:23:05;12.07;;;10.87;;
15476;SDS011;7840;42.702;23.296;2023-04-12T01:25:44;13.33;;;10.70;;
15476;SDS011;7840;42.702;23.296;2023-04-12T01:28:13;16.37;;;11.20;;
15476;SDS011;7840;42.702;23.296;2023-04-12T01:30:41;12.73;;;11.50;;
15476;SDS011;7840;42.702;23.296;2023-04-12T01:33:09;12.30;;;10.73;;
15476;SDS011;7840;42.702;23.296;2023-04-12T01:35:37;14.60;;;10.83;;
15476;SDS011;7840;42.702;23.296;2023-04-12T01:38:05;12.33;;;10.93;;
15476;SDS011;7840;42.702;23.296;2023-04-12T01:40:34;15.30;;;11.70;;
15476;SDS011;7840;42.702;23.296;2023-04-12T01:43:04;12.83;;;11.23;;
15476;SDS011;7840;42.702;23.296;2023-04-12T01:45:32;15.30;;;12.60;;
15476;SDS011;7840;42.702;23.296;2023-04-12T01:48:00;13.33;;;11.93;;
15476;SDS011;7840;42.702;23.296;2023-04-12T01:50:30;13.73;;;12.27;;
15476;SDS011;7840;42.702;23.296;2023-04-12T01:53:02;14.47;;;12.43;;
15476;SDS011;7840;42.702;23.296;2023-04-12T01:55:32;13.70;;;12.10;;
15476;SDS011;7840;42.702;23.296;2023-04-12T01:58:04;15.43;;;12.30;;
15476;SDS011;7840;42.702;23.296;2023-04-12T02:00:32;13.90;;;12.40;;
15476;SDS011;7840;42.702;23.296;2023-04-12T02:03:01;15.10;;;12.43;;
15476;SDS011;7840;42.702;23.296;2023-04-12T02:05:29;13.60;;;12.20;;
15476;SDS011;7840;42.702;23.296;2023-04-12T02:07:55;13.53;;;11.93;;
15476;SDS011;7840;42.702;23.296;2023-04-12T02:10:26;12.63;;;11.30;;
15476;SDS011;7840;42.702;23.296;2023-04-12T02:12:56;15.60;;;12.03;;
15476;SDS011;7840;42.702;23.296;2023-04-12T02:15:24;13.30;;;11.53;;
15476;SDS011;7840;42.702;23.296;2023-04-12T02:17:52;13.73;;;11.80;;
15476;SDS011;7840;42.702;23.296;2023-04-12T02:20:21;14.83;;;12.70;;
15476;SDS011;7840;42.702;23.296;2023-04-12T02:22:49;13.63;;;12.03;;
15476;SDS011;7840;42.702;23.296;2023-04-12T02:25:16;17.57;;;13.30;;
15476;SDS011;7840;42.702;23.296;2023-04-12T02:27:44;13.30;;;11.90;;
15476;SDS011;7840;42.702;23.296;2023-04-12T02:30:13;18.07;;;12.70;;
15476;SDS011;7840;42.702;23.296;2023-04-12T02:32:40;13.50;;;12.10;;
15476;SDS011;7840;42.702;23.296;2023-04-12T02:35:13;14.67;;;12.50;;
15476;SDS011;7840;42.702;23.296;2023-04-12T02:37:43;17.07;;;12.67;;
15476;SDS011;7840;42.702;23.296;2023-04-12T02:40:11;17.47;;;14.00;;
15476;SDS011;7840;42.702;23.296;2023-04-12T02:42:43;14.83;;;12.97;;
15476;SDS011;7840;42.702;23.296;2023-04-12T02:45:11;16.30;;;13.00;;
15476;SDS011;7840;42.702;23.296;2023-04-12T02:47:38;15.10;;;12.57;;
15476;SDS011;7840;42.702;23.296;2023-04-12T02:50:06;16.60;;;13.57;;
15476;SDS011;7840;42.702;23.296;2023-04-12T02:52:35;14.17;;;12.67;;
15476;SDS011;7840;42.702;23.296;2023-04-12T02:55:02;14.67;;;13.07;;
15476;SDS011;7840;42.702;23.296;2023-04-12T02:57:30;14.70;;;12.97;;
15476;SDS011;7840;42.702;23.296;2023-04-12T02:59:57;15.83;;;13.83;;
15476;SDS011;7840;42.702;23.296;2023-04-12T03:02:25;14.93;;;12.07;;
15476;SDS011;7840;42.702;23.296;2023-04-12T03:04:53;13.10;;;11.70;;
15476;SDS011;7840;42.702;23.296;2023-04-12T03:07:21;16.07;;;12.73;;
15476;SDS011;7840;42.702;23.296;2023-04-12T03:09:50;12.87;;;11.57;;
15476;SDS011;7840;42.702;23.296;2023-04-12T03:12:17;14.03;;;12.53;;
15476;SDS011;7840;42.702;23.296;2023-04-12T03:14:44;16.93;;;13.83;;
15476;SDS011;7840;42.702;23.296;2023-04-12T03:17:12;15.97;;;13.17;;
15476;SDS011;7840;42.702;23.296;2023-04-12T03:19:40;17.00;;;14.60;;
15476;SDS011;7840;42.702;23.296;2023-04-12T03:22:07;17.23;;;15.43;;
15476;SDS011;7840;42.702;23.296;2023-04-12T03:24:35;21.43;;;15.70;;
15476;SDS011;7840;42.702;23.296;2023-04-12T03:27:04;17.90;;;14.93;;
15476;SDS011;7840;42.702;23.296;2023-04-12T03:29:32;21.27;;;15.47;;
15476;SDS011;7840;42.702;23.296;2023-04-12T03:31:59;18.90;;;16.20;;
15476;SDS011;7840;42.702;23.296;2023-04-12T03:34:27;18.20;;;16.30;;
15476;SDS011;7840;42.702;23.296;2023-04-12T03:36:56;20.03;;;16.27;;
15476;SDS011;7840;42.702;23.296;2023-04-12T03:39:23;20.50;;;16.83;;
15476;SDS011;7840;42.702;23.296;2023-04-12T03:41:50;18.60;;;16.27;;
15476;SDS011;7840;42.702;23.296;2023-04-12T03:44:19;18.97;;;16.97;;
15476;SDS011;7840;42.702;23.296;2023-04-12T03:46:50;18.33;;;16.40;;
15476;SDS011;7840;42.702;23.296;2023-04-12T03:49:18;17.40;;;14.83;;
15476;SDS011;7840;42.702;23.296;2023-04-12T03:51:45;18.73;;;16.23;;
15476;SDS011;7840;42.702;23.296;2023-04-12T03:54:15;18.43;;;16.37;;
15476;SDS011;7840;42.702;23.296;2023-04-12T03:56:42;17.37;;;14.10;;
15476;SDS011;7840;42.702;23.296;2023-04-12T03:59:10;17.73;;;15.83;;
15476;SDS011;7840;42.702;23.296;2023-04-12T04:01:41;18.03;;;15.20;;
15476;SDS011;7840;42.702;23.296;2023-04-12T04:04:08;18.33;;;15.10;;
15476;SDS011;7840;42.702;23.296;2023-04-12T04:06:36;17.27;;;15.43;;
15476;SDS011;7840;42.702;23.296;2023-04-12T04:09:03;16.10;;;14.40;;
15476;SDS011;7840;42.702;23.296;2023-04-12T04:11:31;19.20;;;15.77;;
15476;SDS011;7840;42.702;23.296;2023-04-12T04:13:58;21.70;;;16.80;;
15476;SDS011;7840;42.702;23.296;2023-04-12T04:16:25;17.50;;;14.93;;
15476;SDS011;7840;42.702;23.296;2023-04-12T04:18:56;19.37;;;17.23;;
15476;SDS011;7840;42.702;23.296;2023-04-12T04:21:23;17.90;;;16.03;;
15476;SDS011;7840;42.702;23.296;2023-04-12T04:23:50;19.07;;;15.33;;
15476;SDS011;7840;42.702;23.296;2023-04-12T04:26:21;19.40;;;16.07;;
15476;SDS011;7840;42.702;23.296;2023-04-12T04:28:57;18.93;;;15.63;;
15476;SDS011;7840;42.702;23.296;2023-04-12T04:31:27;19.77;;;16.10;;
15476;SDS011;7840;42.702;23.296;2023-04-12T04:34:00;19.50;;;16.53;;
15476;SDS011;7840;42.702;23.296;2023-04-12T04:36:31;18.53;;;16.63;;
15476;SDS011;7840;42.702;23.296;2023-04-12T04:38:58;17.40;;;15.57;;
15476;SDS011;7840;42.702;23.296;2023-04-12T04:41:26;17.80;;;15.90;;
15476;SDS011;7840;42.702;23.296;2023-04-12T04:43:53;19.13;;;16.40;;
15476;SDS011;7840;42.702;23.296;2023-04-12T04:46:21;19.47;;;15.60;;
15476;SDS011;7840;42.702;23.296;2023-04-12T04:48:49;17.27;;;15.47;;
15476;SDS011;7840;42.702;23.296;2023-04-12T04:51:20;20.70;;;16.40;;
15476;SDS011;7840;42.702;23.296;2023-04-12T04:53:48;17.77;;;15.13;;
15476;SDS011;7840;42.702;23.296;2023-04-12T04:56:18;15.83;;;14.07;;
15476;SDS011;7840;42.702;23.296;2023-04-12T04:58:47;15.90;;;14.17;;
15476;SDS011;7840;42.702;23.296;2023-04-12T05:01:14;17.50;;;14.60;;
15476;SDS011;7840;42.702;23.296;2023-04-12T05:03:43;15.97;;;14.27;;
15476;SDS011;7840;42.702;23.296;2023-04-12T05:06:13;15.17;;;13.57;;
15476;SDS011;7840;42.702;23.296;2023-04-12T05:08:47;14.20;;;12.67;;
15476;SDS011;7840;42.702;23.296;2023-04-12T05:11:35;14.27;;;12.20;;
15476;SDS011;7840;42.702;23.296;2023-04-12T05:14:03;13.87;;;11.67;;
15476;SDS011;7840;42.702;23.296;2023-04-12T05:16:30;13.07;;;11.77;;
15476;SDS011;7840;42.702;23.296;2023-04-12T05:18:58;12.70;;;11.00;;
15476;SDS011;7840;42.702;23.296;2023-04-12T05:21:25;11.97;;;10.87;;
15476;SDS011;7840;42.702;23.296;2023-04-12T05:23:54;13.57;;;9.97;;
15476;SDS011;7840;42.702;23.296;2023-04-12T05:26:23;11.10;;;9.23;;
15476;SDS011;7840;42.702;23.296;2023-04-12T05:28:51;11.00;;;9.90;;
15476;SDS011;7840;42.702;23.296;2023-04-12T05:31:19;11.43;;;10.03;;
15476;SDS011;7840;42.702;23.296;2023-04-12T05:33:46;10.57;;;9.47;;
15476;SDS011;7840;42.702;23.296;2023-04-12T05:36:13;11.73;;;9.20;;
15476;SDS011;7840;42.702;23.296;2023-04-12T05:38:41;11.27;;;7.87;;
15476;SDS011;7840;42.702;23.296;2023-04-12T05:41:11;10.00;;;8.53;;
15476;SDS011;7840;42.702;23.296;2023-04-12T05:43:39;12.67;;;8.37;;
15476;SDS011;7840;42.702;23.296;2023-04-12T05:49:14;8.70;;;7.43;;
15476;SDS011;7840;42.702;23.296;2023-04-12T05:51:42;7.50;;;6.60;;
15476;SDS011;7840;42.702;23.296;2023-04-12T05:54:09;8.70;;;6.67;;
15476;SDS011;7840;42.702;23.296;2023-04-12T05:56:38;7.57;;;6.60;;
15476;SDS011;7840;42.702;23.296;2023-04-12T05:59:06;9.30;;;7.50;;
15476;SDS011;7840;42.702;23.296;2023-04-12T06:01:35;8.53;;;7.17;;
15476;SDS011;7840;42.702;23.296;2023-04-12T06:04:06;8.97;;;6.60;;
15476;SDS011;7840;42.702;23.296;2023-04-12T06:06:34;7.20;;;6.50;;
15476;SDS011;7840;42.702;23.296;2023-04-12T06:09:01;9.73;;;6.63;;
15476;SDS011;7840;42.702;23.296;2023-04-12T06:11:29;8.30;;;6.33;;
15476;SDS011;7840;42.702;23.296;2023-04-12T06:13:59;8.90;;;6.73;;
15476;SDS011;7840;42.702;23.296;2023-04-12T06:16:28;7.50;;;6.50;;
15476;SDS011;7840;42.702;23.296;2023-04-12T06:18:55;8.47;;;7.10;;
15476;SDS011;7840;42.702;23.296;2023-04-12T06:21:23;6.43;;;5.83;;
15476;SDS011;7840;42.702;23.296;2023-04-12T06:23:50;7.60;;;6.23;;
15476;SDS011;7840;42.702;23.296;2023-04-12T06:26:22;7.47;;;6.60;;
15476;SDS011;7840;42.702;23.296;2023-04-12T06:29:25;6.60;;;5.67;;
15476;SDS011;7840;42.702;23.296;2023-04-12T06:31:53;6.13;;;5.30;;
15476;SDS011;7840;42.702;23.296;2023-04-12T06:34:21;11.93;;;5.30;;
15476;SDS011;7840;42.702;23.296;2023-04-12T06:36:48;6.40;;;5.53;;
15476;SDS011;7840;42.702;23.296;2023-04-12T06:39:15;5.73;;;5.13;;
15476;SDS011;7840;42.702;23.296;2023-04-12T06:41:43;10.73;;;5.70;;
15476;SDS011;7840;42.702;23.296;2023-04-12T06:44:25;8.00;;;5.00;;
15476;SDS011;7840;42.702;23.296;2023-04-12T06:46:53;6.00;;;5.23;;
15476;SDS011;7840;42.702;23.296;2023-04-12T06:49:21;6.53;;;5.47;;
15476;SDS011;7840;42.702;23.296;2023-04-12T06:51:49;9.90;;;5.50;;
15476;SDS011;7840;42.702;23.296;2023-04-12T06:54:17;5.53;;;3.77;;
15476;SDS011;7840;42.702;23.296;2023-04-12T06:56:44;4.43;;;4.03;;
15476;SDS011;7840;42.702;23.296;2023-04-12T06:59:12;6.17;;;4.13;;
15476;SDS011;7840;42.702;23.296;2023-04-12T07:01:44;4.20;;;3.80;;
15476;SDS011;7840;42.702;23.296;2023-04-12T07:04:12;4.60;;;3.93;;
15476;SDS011;7840;42.702;23.296;2023-04-12T07:06:48;4.00;;;3.60;;
15476;SDS011;7840;42.702;23.296;2023-04-12T07:09:18;4.27;;;3.87;;
15476;SDS011;7840;42.702;23.296;2023-04-12T07:11:46;4.20;;;3.80;;
15476;SDS011;7840;42.702;23.296;2023-04-12T07:14:14;4.23;;;3.83;;
15476;SDS011;7840;42.702;23.296;2023-04-12T07:16:41;4.73;;;3.90;;
15476;SDS011;7840;42.702;23.296;2023-04-12T07:19:10;4.40;;;4.00;;
15476;SDS011;7840;42.702;23.296;2023-04-12T07:21:38;4.83;;;3.77;;
15476;SDS011;7840;42.702;23.296;2023-04-12T07:24:05;4.90;;;4.40;;
15476;SDS011;7840;42.702;23.296;2023-04-12T07:26:33;5.00;;;4.60;;
15476;SDS011;7840;42.702;23.296;2023-04-12T07:29:00;4.93;;;4.40;;
15476;SDS011;7840;42.702;23.296;2023-04-12T07:31:28;5.30;;;4.33;;
15476;SDS011;7840;42.702;23.296;2023-04-12T07:33:55;5.77;;;4.50;;
15476;SDS011;7840;42.702;23.296;2023-04-12T07:36:24;5.23;;;4.37;;
15476;SDS011;7840;42.702;23.296;2023-04-12T07:38:51;3.90;;;3.50;;
15476;SDS011;7840;42.702;23.296;2023-04-12T07:41:20;4.37;;;3.97;;
15476;SDS011;7840;42.702;23.296;2023-04-12T07:43:47;4.77;;;3.73;;
15476;SDS011;7840;42.702;23.296;2023-04-12T07:46:15;5.00;;;3.90;;
15476;SDS011;7840;42.702;23.296;2023-04-12T07:48:42;4.03;;;3.73;;
15476;SDS011;7840;42.702;23.296;2023-04-12T07:51:10;3.37;;;3.03;;
15476;SDS011;7840;42.702;23.296;2023-04-12T07:53:39;3.50;;;3.10;;
15476;SDS011;7840;42.702;23.296;2023-04-12T07:56:06;3.63;;;2.83;;
15476;SDS011;7840;42.702;23.296;2023-04-12T07:58:34;5.80;;;2.80;;
15476;SDS011;7840;42.702;23.296;2023-04-12T08:01:01;3.27;;;2.60;;
15476;SDS011;7840;42.702;23.296;2023-04-12T08:03:28;2.77;;;2.57;;
15476;SDS011;7840;42.702;23.296;2023-04-12T08:05:56;2.90;;;2.40;;
15476;SDS011;7840;42.702;23.296;2023-04-12T08:08:23;3.40;;;2.50;;
15476;SDS011;7840;42.702;23.296;2023-04-12T08:10:52;7.43;;;2.30;;
15476;SDS011;7840;42.702;23.296;2023-04-12T08:13:20;2.50;;;2.20;;
15476;SDS011;7840;42.702;23.296;2023-04-12T08:15:47;3.27;;;2.47;;
15476;SDS011;7840;42.702;23.296;2023-04-12T08:18:15;3.73;;;2.20;;
15476;SDS011;7840;42.702;23.296;2023-04-12T08:20:42;2.83;;;2.07;;
15476;SDS011;7840;42.702;23.296;2023-04-12T08:23:09;2.23;;;2.03;;
15476;SDS011;7840;42.702;23.296;2023-04-12T08:25:37;3.47;;;2.27;;
15476;SDS011;7840;42.702;23.296;2023-04-12T08:28:06;2.80;;;2.27;;
15476;SDS011;7840;42.702;23.296;2023-04-12T08:30:33;2.27;;;2.07;;
15476;SDS011;7840;42.702;23.296;2023-04-12T08:33:00;2.30;;;1.90;;
15476;SDS011;7840;42.702;23.296;2023-04-12T08:35:28;2.73;;;2.13;;
15476;SDS011;7840;42.702;23.296;2023-04-12T08:37:55;2.43;;;1.80;;
15476;SDS011;7840;42.702;23.296;2023-04-12T08:40:24;3.17;;;2.33;;
15476;SDS011;7840;42.702;23.296;2023-04-12T08:42:51;2.33;;;1.70;;
15476;SDS011;7840;42.702;23.296;2023-04-12T08:45:20;2.40;;;2.20;;
15476;SDS011;7840;42.702;23.296;2023-04-12T08:47:49;1.80;;;1.63;;
15476;SDS011;7840;42.702;23.296;2023-04-12T08:50:16;2.90;;;2.20;;
15476;SDS011;7840;42.702;23.296;2023-04-12T08:52:44;2.67;;;1.70;;
15476;SDS011;7840;42.702;23.296;2023-04-12T08:55:13;2.50;;;2.07;;
15476;SDS011;7840;42.702;23.296;2023-04-12T08:57:40;4.03;;;2.07;;
15476;SDS011;7840;42.702;23.296;2023-04-12T09:00:08;3.80;;;1.63;;
15476;SDS011;7840;42.702;23.296;2023-04-12T09:02:38;3.47;;;1.70;;
15476;SDS011;7840;42.702;23.296;2023-04-12T09:05:10;2.07;;;1.70;;
15476;SDS011;7840;42.702;23.296;2023-04-12T09:07:38;1.90;;;1.80;;
15476;SDS011;7840;42.702;23.296;2023-04-12T09:10:06;3.27;;;2.00;;
15476;SDS011;7840;42.702;23.296;2023-04-12T09:12:33;1.80;;;1.70;;
15476;SDS011;7840;42.702;23.296;2023-04-12T09:15:05;3.37;;;2.13;;
15476;SDS011;7840;42.702;23.296;2023-04-12T09:17:34;2.30;;;1.70;;
15476;SDS011;7840;42.702;23.296;2023-04-12T09:20:07;3.03;;;1.70;;
15476;SDS011;7840;42.702;23.296;2023-04-12T09:22:49;2.03;;;1.83;;
15476;SDS011;7840;42.702;23.296;2023-04-12T09:25:19;1.60;;;1.40;;
15476;SDS011;7840;42.702;23.296;2023-04-12T09:28:01;4.23;;;1.90;;
15476;SDS011;7840;42.702;23.296;2023-04-12T09:30:28;5.60;;;1.87;;
15476;SDS011;7840;42.702;23.296;2023-04-12T09:32:56;2.60;;;1.60;;
15476;SDS011;7840;42.702;23.296;2023-04-12T09:35:38;2.00;;;1.40;;
15476;SDS011;7840;42.702;23.296;2023-04-12T09:38:07;2.97;;;1.55;;
15476;SDS011;7840;42.702;23.296;2023-04-12T09:40:35;2.20;;;1.67;;
15476;SDS011;7840;42.702;23.296;2023-04-12T09:43:02;2.17;;;1.70;;
15476;SDS011;7840;42.702;23.296;2023-04-12T09:45:32;3.75;;;1.70;;
15476;SDS011;7840;42.702;23.296;2023-04-12T09:47:59;4.07;;;1.50;;
15476;SDS011;7840;42.702;23.296;2023-04-12T09:50:27;2.90;;;1.80;;
15476;SDS011;7840;42.702;23.296;2023-04-12T09:52:59;3.80;;;1.70;;
15476;SDS011;7840;42.702;23.296;2023-04-12T09:55:27;2.45;;;1.95;;
15476;SDS011;7840;42.702;23.296;2023-04-12T09:57:56;2.53;;;1.85;;
15476;SDS011;7840;42.702;23.296;2023-04-12T10:00:27;2.75;;;1.65;;
15476;SDS011;7840;42.702;23.296;2023-04-12T10:02:55;1.95;;;1.50;;
15476;SDS011;7840;42.702;23.296;2023-04-12T10:05:23;5.38;;;1.70;;
15476;SDS011;7840;42.702;23.296;2023-04-12T10:07:51;1.70;;;1.30;;
15476;SDS011;7840;42.702;23.296;2023-04-12T10:10:19;2.03;;;1.40;;
15476;SDS011;7840;42.702;23.296;2023-04-12T10:12:47;1.52;;;1.33;;
15476;SDS011;7840;42.702;23.296;2023-04-12T10:15:15;1.33;;;1.20;;
15476;SDS011;7840;42.702;23.296;2023-04-12T10:17:43;1.85;;;1.27;;
15476;SDS011;7840;42.702;23.296;2023-04-12T10:20:11;2.15;;;1.20;;
15476;SDS011;7840;42.702;23.296;2023-04-12T10:22:39;1.58;;;1.20;;
15476;SDS011;7840;42.702;23.296;2023-04-12T10:25:10;3.15;;;1.20;;
15476;SDS011;7840;42.702;23.296;2023-04-12T10:27:43;3.25;;;1.40;;
15476;SDS011;7840;42.702;23.296;2023-04-12T10:30:23;3.45;;;1.35;;
15476;SDS011;7840;42.702;23.296;2023-04-12T10:33:09;4.05;;;1.58;;
15476;SDS011;7840;42.702;23.296;2023-04-12T10:35:53;6.15;;;1.40;;
15476;SDS011;7840;42.702;23.296;2023-04-12T10:38:21;1.40;;;1.30;;
15476;SDS011;7840;42.702;23.296;2023-04-12T10:41:07;1.85;;;1.50;;
15476;SDS011;7840;42.702;23.296;2023-04-12T10:43:35;1.48;;;1.38;;
15476;SDS011;7840;42.702;23.296;2023-04-12T10:46:03;3.35;;;1.60;;
15476;SDS011;7840;42.702;23.296;2023-04-12T10:48:31;5.05;;;1.50;;
15476;SDS011;7840;42.702;23.296;2023-04-12T10:51:11;1.60;;;1.50;;
15476;SDS011;7840;42.702;23.296;2023-04-12T10:53:39;3.20;;;1.83;;
15476;SDS011;7840;42.702;23.296;2023-04-12T10:58:57;1.98;;;1.60;;
15476;SDS011;7840;42.702;23.296;2023-04-12T11:01:25;1.30;;;1.20;;
15476;SDS011;7840;42.702;23.296;2023-04-12T11:04:08;1.17;;;1.08;;
15476;SDS011;7840;42.702;23.296;2023-04-12T11:06:41;3.08;;;1.35;;
15476;SDS011;7840;42.702;23.296;2023-04-12T11:09:15;2.35;;;1.10;;
15476;SDS011;7840;42.702;23.296;2023-04-12T11:11:43;1.75;;;1.38;;
15476;SDS011;7840;42.702;23.296;2023-04-12T11:14:12;2.60;;;1.27;;
15476;SDS011;7840;42.702;23.296;2023-04-12T11:19:26;7.78;;;1.20;;
15476;SDS011;7840;42.702;23.296;2023-04-12T11:21:54;1.83;;;1.40;;
15476;SDS011;7840;42.702;23.296;2023-04-12T11:24:22;1.70;;;1.40;;
15476;SDS011;7840;42.702;23.296;2023-04-12T11:26:49;3.28;;;1.67;;
15476;SDS011;7840;42.702;23.296;2023-04-12T11:29:23;1.30;;;1.17;;
15476;SDS011;7840;42.702;23.296;2023-04-12T11:31:50;2.10;;;1.42;;
15476;SDS011;7840;42.702;23.296;2023-04-12T11:34:19;11.30;;;1.80;;
15476;SDS011;7840;42.702;23.296;2023-04-12T11:36:46;2.00;;;1.58;;
15476;SDS011;7840;42.702;23.296;2023-04-12T11:39:14;1.85;;;1.50;;
15476;SDS011;7840;42.702;23.296;2023-04-12T11:41:42;3.58;;;1.50;;
15476;SDS011;7840;42.702;23.296;2023-04-12T11:44:10;2.50;;;1.20;;
15476;SDS011;7840;42.702;23.296;2023-04-12T11:46:38;2.08;;;1.00;;
15476;SDS011;7840;42.702;23.296;2023-04-12T11:49:06;3.00;;;1.20;;
15476;SDS011;7840;42.702;23.296;2023-04-12T11:51:33;7.05;;;1.42;;
15476;SDS011;7840;42.702;23.296;2023-04-12T11:54:01;2.85;;;1.33;;
15476;SDS011;7840;42.702;23.296;2023-04-12T11:56:28;2.88;;;1.30;;
15476;SDS011;7840;42.702;23.296;2023-04-12T11:58:57;2.63;;;1.27;;
15476;SDS011;7840;42.702;23.296;2023-04-12T12:01:24;6.38;;;1.20;;
15476;SDS011;7840;42.702;23.296;2023-04-12T12:03:54;2.03;;;1.08;;
15476;SDS011;7840;42.702;23.296;2023-04-12T12:06:22;1.58;;;1.10;;
15476;SDS011;7840;42.702;23.296;2023-04-12T12:08:50;1.75;;;1.30;;
15476;SDS011;7840;42.702;23.296;2023-04-12T12:11:18;3.10;;;1.40;;
15476;SDS011;7840;42.702;23.296;2023-04-12T12:13:46;4.90;;;1.45;;
15476;SDS011;7840;42.702;23.296;2023-04-12T12:16:13;2.35;;;1.45;;
15476;SDS011;7840;42.702;23.296;2023-04-12T12:18:41;1.30;;;1.20;;
15476;SDS011;7840;42.702;23.296;2023-04-12T12:21:11;1.73;;;1.20;;
15476;SDS011;7840;42.702;23.296;2023-04-12T12:23:40;4.28;;;1.20;;
15476;SDS011;7840;42.702;23.296;2023-04-12T12:26:08;2.28;;;1.27;;
15476;SDS011;7840;42.702;23.296;2023-04-12T12:28:35;1.20;;;1.10;;
15476;SDS011;7840;42.702;23.296;2023-04-12T12:31:04;2.42;;;1.20;;
15476;SDS011;7840;42.702;23.296;2023-04-12T12:33:35;3.25;;;1.20;;
15476;SDS011;7840;42.702;23.296;2023-04-12T12:36:03;3.20;;;1.55;;
15476;SDS011;7840;42.702;23.296;2023-04-12T12:38:34;2.13;;;1.25;;
15476;SDS011;7840;42.702;23.296;2023-04-12T12:43:45;2.00;;;1.30;;
15476;SDS011;7840;42.702;23.296;2023-04-12T12:46:12;3.75;;;1.55;;
15476;SDS011;7840;42.702;23.296;2023-04-12T12:48:39;1.17;;;0.98;;
15476;SDS011;7840;42.702;23.296;2023-04-12T12:51:07;1.17;;;1.13;;
15476;SDS011;7840;42.702;23.296;2023-04-12T12:53:36;1.20;;;1.10;;
15476;SDS011;7840;42.702;23.296;2023-04-12T12:56:03;2.47;;;1.30;;
15476;SDS011;7840;42.702;23.296;2023-04-12T12:58:31;1.50;;;1.40;;
15476;SDS011;7840;42.702;23.296;2023-04-12T13:00:58;1.95;;;1.20;;
15476;SDS011;7840;42.702;23.296;2023-04-12T13:03:26;1.75;;;1.30;;
15476;SDS011;7840;42.702;23.296;2023-04-12T13:05:53;2.50;;;1.20;;
15476;SDS011;7840;42.702;23.296;2023-04-12T13:08:21;2.05;;;1.30;;
15476;SDS011;7840;42.702;23.296;2023-04-12T13:10:49;1.58;;;1.38;;
15476;SDS011;7840;42.702;23.296;2023-04-12T13:13:17;1.55;;;1.15;;
15476;SDS011;7840;42.702;23.296;2023-04-12T13:15:44;2.25;;;1.10;;
15476;SDS011;7840;42.702;23.296;2023-04-12T13:18:12;1.73;;;1.15;;
15476;SDS011;7840;42.702;23.296;2023-04-12T13:20:40;2.30;;;1.35;;
15476;SDS011;7840;42.702;23.296;2023-04-12T13:23:08;1.60;;;1.10;;
15476;SDS011;7840;42.702;23.296;2023-04-12T13:25:35;2.50;;;1.30;;
15476;SDS011;7840;42.702;23.296;2023-04-12T13:28:04;1.15;;;1.05;;
15476;SDS011;7840;42.702;23.296;2023-04-12T13:30:31;2.05;;;1.40;;
15476;SDS011;7840;42.702;23.296;2023-04-12T13:32:58;3.05;;;1.38;;
15476;SDS011;7840;42.702;23.296;2023-04-12T13:35:26;2.55;;;1.33;;
15476;SDS011;7840;42.702;23.296;2023-04-12T13:37:53;0.90;;;0.90;;
15476;SDS011;7840;42.702;23.296;2023-04-12T13:40:20;1.77;;;1.23;;
15476;SDS011;7840;42.702;23.296;2023-04-12T13:42:48;4.25;;;1.30;;
15476;SDS011;7840;42.702;23.296;2023-04-12T13:45:16;2.35;;;1.10;;
15476;SDS011;7840;42.702;23.296;2023-04-12T13:47:44;2.25;;;1.50;;
15476;SDS011;7840;42.702;23.296;2023-04-12T13:50:11;2.40;;;1.15;;
15476;SDS011;7840;42.702;23.296;2023-04-12T13:52:38;4.13;;;1.30;;
15476;SDS011;7840;42.702;23.296;2023-04-12T13:55:06;2.78;;;1.40;;
15476;SDS011;7840;42.702;23.296;2023-04-12T13:57:33;1.27;;;1.17;;
15476;SDS011;7840;42.702;23.296;2023-04-12T14:00:01;2.17;;;1.25;;
15476;SDS011;7840;42.702;23.296;2023-04-12T14:02:30;1.20;;;1.10;;
15476;SDS011;7840;42.702;23.296;2023-04-12T14:04:57;3.45;;;1.42;;
15476;SDS011;7840;42.702;23.296;2023-04-12T14:07:25;2.80;;;1.13;;
15476;SDS011;7840;42.702;23.296;2023-04-12T14:09:53;1.45;;;1.00;;
15476;SDS011;7840;42.702;23.296;2023-04-12T14:12:22;1.23;;;1.10;;
15476;SDS011;7840;42.702;23.296;2023-04-12T14:14:49;1.17;;;1.10;;
15476;SDS011;7840;42.702;23.296;2023-04-12T14:17:16;1.23;;;1.02;;
15476;SDS011;7840;42.702;23.296;2023-04-12T14:19:45;1.40;;;1.30;;
15476;SDS011;7840;42.702;23.296;2023-04-12T14:22:12;1.80;;;1.38;;
15476;SDS011;7840;42.702;23.296;2023-04-12T14:24:39;2.85;;;1.40;;
15476;SDS011;7840;42.702;23.296;2023-04-12T14:27:07;4.88;;;1.95;;
15476;SDS011;7840;42.702;23.296;2023-04-12T14:29:35;1.00;;;0.98;;
15476;SDS011;7840;42.702;23.296;2023-04-12T14:32:04;1.65;;;1.23;;
15476;SDS011;7840;42.702;23.296;2023-04-12T14:34:31;1.30;;;1.15;;
15476;SDS011;7840;42.702;23.296;2023-04-12T14:36:59;1.30;;;1.20;;
15476;SDS011;7840;42.702;23.296;2023-04-12T14:39:27;4.68;;;1.40;;
15476;SDS011;7840;42.702;23.296;2023-04-12T14:41:57;3.88;;;1.77;;
15476;SDS011;7840;42.702;23.296;2023-04-12T14:44:24;3.65;;;1.40;;
15476;SDS011;7840;42.702;23.296;2023-04-12T14:46:51;3.38;;;1.40;;
15476;SDS011;7840;42.702;23.296;2023-04-12T14:49:18;1.30;;;1.20;;
15476;SDS011;7840;42.702;23.296;2023-04-12T14:51:46;2.38;;;1.10;;
15476;SDS011;7840;42.702;23.296;2023-04-12T14:54:14;2.15;;;1.30;;
15476;SDS011;7840;42.702;23.296;2023-04-12T14:56:42;2.30;;;1.13;;
15476;SDS011;7840;42.702;23.296;2023-04-12T14:59:11;2.78;;;1.38;;